createdAt,value
2018-04-24T00:01:38.780Z,86.14
2018-04-24T00:04:06.389Z,86.08
2018-04-24T00:06:34.060Z,86.58
2018-04-24T00:09:01.682Z,87.19
2018-04-24T00:11:29.351Z,87.35
2018-04-24T00:13:56.989Z,86.22
2018-04-24T00:16:24.618Z,84.71
2018-04-24T00:18:52.240Z,85.49
2018-04-24T00:21:19.974Z,86.06
2018-04-24T00:23:47.663Z,85.08
2018-04-24T00:26:15.272Z,86.01
2018-04-24T00:28:42.891Z,84.25
2018-04-24T00:31:10.511Z,86.60
2018-04-24T00:33:38.176Z,87.13
2018-04-24T00:36:06.162Z,87.11
2018-04-24T00:38:33.749Z,85.73
2018-04-24T00:41:01.392Z,84.66
2018-04-24T00:43:28.996Z,83.54
2018-04-24T00:45:56.738Z,84.58
2018-04-24T00:48:24.316Z,84.51
2018-04-24T00:50:51.980Z,84.21
2018-04-24T00:53:40.601Z,85.75
2018-04-24T00:56:08.203Z,86.00
2018-04-24T00:58:35.998Z,85.41
2018-04-24T01:01:03.602Z,85.70
2018-04-24T01:03:31.259Z,87.44
2018-04-24T01:05:58.930Z,88.57
2018-04-24T01:08:26.603Z,89.14
2018-04-24T01:10:54.215Z,88.77
2018-04-24T01:13:21.822Z,86.50
2018-04-24T01:15:49.453Z,86.40
2018-04-24T01:18:17.138Z,86.30
2018-04-24T01:20:44.784Z,85.61
2018-04-24T01:23:12.376Z,84.57
2018-04-24T01:25:40.018Z,84.94
2018-04-24T01:28:07.631Z,85.64
2018-04-24T01:30:35.296Z,86.09
2018-04-24T01:33:02.883Z,85.90
2018-04-24T01:35:30.541Z,86.98
2018-04-24T01:37:58.201Z,87.66
2018-04-24T01:40:25.804Z,87.06
2018-04-24T01:42:53.430Z,86.31
2018-04-24T01:45:21.032Z,86.62
2018-04-24T01:47:49.281Z,87.98
2018-04-24T01:50:17.335Z,86.80
2018-04-24T01:52:44.938Z,87.15
2018-04-24T01:55:12.589Z,86.59
2018-04-24T01:57:40.231Z,86.12
2018-04-24T02:00:07.881Z,86.32
2018-04-24T02:02:35.580Z,86.88
2018-04-24T02:05:03.183Z,86.53
2018-04-24T02:07:30.772Z,85.98
2018-04-24T02:09:58.454Z,85.23
2018-04-24T02:12:26.053Z,84.37
2018-04-24T02:14:53.659Z,84.92
2018-04-24T02:17:21.304Z,84.84
2018-04-24T02:19:49.010Z,85.15
2018-04-24T02:22:16.635Z,85.56
2018-04-24T02:24:44.305Z,85.60
2018-04-24T02:27:11.999Z,85.44
2018-04-24T02:29:39.612Z,86.27
2018-04-24T02:32:07.275Z,86.04
2018-04-24T02:34:35.255Z,85.65
2018-04-24T02:37:02.935Z,85.37
2018-04-24T02:39:30.590Z,84.96
2018-04-24T02:41:58.207Z,85.53
2018-04-24T02:44:25.862Z,86.26
2018-04-24T02:46:53.475Z,86.01
2018-04-24T02:49:21.115Z,86.54
2018-04-24T02:51:48.739Z,86.12
2018-04-24T02:54:16.353Z,86.44
2018-04-24T02:56:43.994Z,86.33
2018-04-24T02:59:11.593Z,87.70
2018-04-24T03:01:39.253Z,86.27
2018-04-24T03:04:07.048Z,85.95
2018-04-24T03:06:34.676Z,85.72
2018-04-24T03:09:02.367Z,85.77
2018-04-24T03:11:30.015Z,85.53
2018-04-24T03:13:57.651Z,85.63
2018-04-24T03:16:25.304Z,85.96
2018-04-24T03:18:52.904Z,87.26
2018-04-24T03:21:20.624Z,87.23
2018-04-24T03:23:48.413Z,88.21
2018-04-24T03:26:16.066Z,87.56
2018-04-24T03:28:43.776Z,87.14
2018-04-24T03:31:11.367Z,86.62
2018-04-24T03:33:39.025Z,86.62
2018-04-24T03:36:06.666Z,87.36
2018-04-24T03:38:34.345Z,87.47
2018-04-24T03:41:01.946Z,87.23
2018-04-24T03:43:29.600Z,87.00
2018-04-24T03:45:57.277Z,86.54
2018-04-24T03:48:24.873Z,86.70
2018-04-24T03:50:52.487Z,87.73
2018-04-24T03:53:20.126Z,86.95
2018-04-24T03:55:47.746Z,88.37
2018-04-24T03:58:15.397Z,89.13
2018-04-24T04:00:43.020Z,88.53
2018-04-24T04:03:10.664Z,88.23
2018-04-24T04:05:38.327Z,87.92
2018-04-24T04:08:05.963Z,87.89
2018-04-24T04:10:33.644Z,87.59
2018-04-24T04:13:01.253Z,87.26
2018-04-24T04:15:28.967Z,87.25
2018-04-24T04:18:08.505Z,87.18
2018-04-24T04:20:47.839Z,86.80
2018-04-24T04:23:27.093Z,86.89
2018-04-24T04:25:55.440Z,86.69
2018-04-24T04:28:23.060Z,87.22
2018-04-24T04:30:50.725Z,88.04
2018-04-24T04:33:18.389Z,87.31
2018-04-24T04:35:46.045Z,87.16
2018-04-24T04:38:13.694Z,87.85
2018-04-24T04:40:41.362Z,88.45
2018-04-24T04:43:09.027Z,87.79
2018-04-24T04:45:36.698Z,87.29
2018-04-24T04:48:04.400Z,87.45
2018-04-24T04:50:32.049Z,88.51
2018-04-24T04:52:59.749Z,88.85
2018-04-24T04:55:27.364Z,89.10
2018-04-24T04:57:54.970Z,88.80
2018-04-24T05:00:22.681Z,88.21
2018-04-24T05:02:50.296Z,87.61
2018-04-24T05:05:18.801Z,87.55
2018-04-24T05:07:46.379Z,87.75
2018-04-24T05:10:14.040Z,87.88
2018-04-24T05:12:41.649Z,88.45
2018-04-24T05:15:09.241Z,88.25
2018-04-24T05:17:36.929Z,87.58
2018-04-24T05:20:04.585Z,88.16
2018-04-24T05:22:32.184Z,87.86
2018-04-24T05:24:59.867Z,87.06
2018-04-24T05:27:27.464Z,87.28
2018-04-24T05:29:55.111Z,87.87
2018-04-24T05:32:22.777Z,88.00
2018-04-24T05:34:50.407Z,86.99
2018-04-24T05:37:18.008Z,86.76
2018-04-24T05:39:45.671Z,86.41
2018-04-24T05:42:13.295Z,87.10
2018-04-24T05:44:40.902Z,87.32
2018-04-24T05:47:08.552Z,86.18
2018-04-24T05:49:36.235Z,85.89
2018-04-24T05:52:03.917Z,85.19
2018-04-24T05:54:31.552Z,85.90
2018-04-24T05:56:59.149Z,86.01
2018-04-24T05:59:26.791Z,86.50
2018-04-24T06:01:54.400Z,87.50
2018-04-24T06:04:22.049Z,87.25
2018-04-24T06:06:49.707Z,86.08
2018-04-24T06:09:17.309Z,85.99
2018-04-24T06:11:44.962Z,85.39
2018-04-24T06:14:12.698Z,85.30
2018-04-24T06:16:40.383Z,85.08
2018-04-24T06:19:08.079Z,85.25
2018-04-24T06:21:35.709Z,86.06
2018-04-24T06:24:03.367Z,86.12
2018-04-24T06:26:30.978Z,86.16
2018-04-24T06:28:58.590Z,86.57
2018-04-24T06:31:26.239Z,86.43
2018-04-24T06:33:53.893Z,84.06
2018-04-24T06:36:21.501Z,84.65
2018-04-24T06:38:49.169Z,85.16
2018-04-24T06:41:16.803Z,84.58
2018-04-24T06:43:44.388Z,85.45
2018-04-24T06:46:12.079Z,84.98
2018-04-24T06:48:39.711Z,84.50
2018-04-24T06:51:07.339Z,83.50
2018-04-24T06:53:34.937Z,83.36
2018-04-24T06:56:02.597Z,83.10
2018-04-24T06:58:30.237Z,84.71
2018-04-24T07:00:57.834Z,83.58
2018-04-24T07:03:25.478Z,84.38
2018-04-24T07:05:53.146Z,83.04
2018-04-24T07:08:20.736Z,82.14
2018-04-24T07:10:48.366Z,81.81
2018-04-24T07:13:16.084Z,81.88
2018-04-24T07:15:44.692Z,83.25
2018-04-24T07:18:13.338Z,83.57
2018-04-24T07:20:41.002Z,83.87
2018-04-24T07:23:08.674Z,85.02
2018-04-24T07:25:36.346Z,83.74
2018-04-24T07:28:03.967Z,83.59
2018-04-24T07:30:31.572Z,82.84
2018-04-24T07:32:59.310Z,81.20
2018-04-24T07:35:27.004Z,83.04
2018-04-24T07:37:54.710Z,84.04
2018-04-24T07:40:22.347Z,83.60
2018-04-24T07:42:50.050Z,83.22
2018-04-24T07:45:17.678Z,80.56
2018-04-24T07:47:45.390Z,83.11
2018-04-24T07:50:13.094Z,83.29
2018-04-24T07:52:40.775Z,82.62
2018-04-24T07:55:08.451Z,83.12
2018-04-24T07:57:36.128Z,82.39
2018-04-24T08:00:03.921Z,82.87
2018-04-24T08:02:31.577Z,81.76
2018-04-24T08:05:00.121Z,81.55
2018-04-24T08:07:27.860Z,82.11
2018-04-24T08:09:55.619Z,82.32
2018-04-24T08:12:23.308Z,82.12
2018-04-24T08:14:51.035Z,81.08
2018-04-24T08:17:18.722Z,79.97
2018-04-24T08:19:46.399Z,81.98
2018-04-24T08:22:14.064Z,79.57
2018-04-24T08:24:41.677Z,76.78
2018-04-24T08:27:09.383Z,77.75
2018-04-24T08:29:36.984Z,78.11
2018-04-24T08:32:04.645Z,77.19
2018-04-24T08:34:32.722Z,77.37
2018-04-24T08:37:00.568Z,75.05
2018-04-24T08:39:28.287Z,74.46
2018-04-24T08:41:56.138Z,73.53
2018-04-24T08:44:23.878Z,73.11
2018-04-24T08:46:51.545Z,72.21
2018-04-24T08:49:19.351Z,71.84
2018-04-24T08:51:46.965Z,71.62
2018-04-24T08:54:14.764Z,69.54
2018-04-24T08:56:42.519Z,70.12
2018-04-24T08:59:10.140Z,69.29
2018-04-24T09:01:38.007Z,69.00
2018-04-24T09:04:05.709Z,67.61
2018-04-24T09:06:33.718Z,69.02
2018-04-24T09:09:01.395Z,70.21
2018-04-24T09:11:29.616Z,69.49
2018-04-24T09:13:57.333Z,68.97
2018-04-24T09:16:24.949Z,67.95
2018-04-24T09:18:52.908Z,68.57
2018-04-24T09:21:21.477Z,67.48
2018-04-24T09:23:49.163Z,67.47
2018-04-24T09:26:17.575Z,65.83
2018-04-24T09:28:45.236Z,65.10
2018-04-24T09:31:12.925Z,64.52
2018-04-24T09:33:40.642Z,63.93
2018-04-24T09:36:08.677Z,62.78
2018-04-24T09:38:36.287Z,59.57
2018-04-24T09:41:03.987Z,62.36
2018-04-24T09:43:31.652Z,61.73
2018-04-24T09:45:59.310Z,64.01
2018-04-24T09:48:27.067Z,63.70
2018-04-24T09:50:55.487Z,63.02
2018-04-24T09:53:23.162Z,64.02
2018-04-24T09:55:50.879Z,64.43
2018-04-24T09:58:18.587Z,64.36
2018-04-24T10:00:46.235Z,65.33
2018-04-24T10:03:13.892Z,63.42
2018-04-24T10:05:41.511Z,64.89
2018-04-24T10:08:09.170Z,63.98
2018-04-24T10:10:36.829Z,63.52
2018-04-24T10:13:04.529Z,64.36
2018-04-24T10:15:32.180Z,63.46
2018-04-24T10:17:59.819Z,63.56
2018-04-24T10:20:27.800Z,65.17
2018-04-24T10:22:55.397Z,63.58
2018-04-24T10:25:23.064Z,62.91
2018-04-24T10:27:50.673Z,63.39
2018-04-24T10:30:18.329Z,64.43
2018-04-24T10:32:45.992Z,63.72
2018-04-24T10:35:13.651Z,62.69
2018-04-24T10:37:41.353Z,63.81
2018-04-24T10:40:09.102Z,63.34
2018-04-24T10:42:36.769Z,62.98
2018-04-24T10:45:04.574Z,62.20
2018-04-24T10:47:32.198Z,62.78
2018-04-24T10:50:00.079Z,62.16
2018-04-24T10:52:27.734Z,62.51
2018-04-24T10:54:55.348Z,62.86
2018-04-24T10:57:23.074Z,62.43
2018-04-24T10:59:50.693Z,63.35
2018-04-24T11:02:18.387Z,62.50
2018-04-24T11:04:46.137Z,62.27
2018-04-24T11:07:13.724Z,61.72
2018-04-24T11:09:41.383Z,62.06
2018-04-24T11:12:09.037Z,62.30
2018-04-24T11:14:36.691Z,64.56
2018-04-24T11:17:04.405Z,63.28
2018-04-24T11:19:32.203Z,63.54
2018-04-24T11:21:59.805Z,65.29
2018-04-24T11:24:27.470Z,63.98
2018-04-24T11:26:55.087Z,64.93
2018-04-24T11:29:22.807Z,64.02
2018-04-24T11:31:50.914Z,62.21
2018-04-24T11:34:18.554Z,60.47
2018-04-24T11:36:46.224Z,58.95
2018-04-24T11:39:13.822Z,58.94
2018-04-24T11:41:41.523Z,58.07
2018-04-24T11:44:09.549Z,55.83
2018-04-24T11:46:37.172Z,56.99
2018-04-24T11:49:04.869Z,55.70
2018-04-24T11:51:32.849Z,55.19
2018-04-24T11:54:00.460Z,55.89
2018-04-24T11:56:28.118Z,54.99
2018-04-24T11:58:55.709Z,56.70
2018-04-24T12:01:23.410Z,56.40
2018-04-24T12:03:51.051Z,55.68
2018-04-24T12:06:18.651Z,55.46
2018-04-24T12:08:46.307Z,54.50
2018-04-24T12:11:13.904Z,54.95
2018-04-24T12:13:41.519Z,53.76
2018-04-24T12:16:09.201Z,52.89
2018-04-24T12:18:36.861Z,53.80
2018-04-24T12:21:04.520Z,51.99
2018-04-24T12:23:32.184Z,50.44
2018-04-24T12:25:59.787Z,51.19
2018-04-24T12:28:27.424Z,49.95
2018-04-24T12:30:55.125Z,51.60
2018-04-24T12:33:22.733Z,49.87
2018-04-24T12:35:50.413Z,50.33
2018-04-24T12:38:18.084Z,51.76
2018-04-24T12:40:45.691Z,50.06
2018-04-24T12:43:13.443Z,53.06
2018-04-24T12:45:41.112Z,49.67
2018-04-24T12:48:08.795Z,50.66
2018-04-24T12:50:37.329Z,50.82
2018-04-24T12:53:04.921Z,50.37
2018-04-24T12:55:32.594Z,49.35
2018-04-24T12:58:00.270Z,50.23
2018-04-24T13:00:27.959Z,49.04
2018-04-24T13:02:55.667Z,50.44
2018-04-24T13:05:23.288Z,48.45
2018-04-24T13:07:50.966Z,47.08
2018-04-24T13:10:19.296Z,47.90
2018-04-24T13:12:46.904Z,45.62
2018-04-24T13:15:14.634Z,46.66
2018-04-24T13:17:42.345Z,47.78
2018-04-24T13:20:10.976Z,47.38
2018-04-24T13:22:38.636Z,45.70
2018-04-24T13:25:06.414Z,45.83
2018-04-24T13:27:34.124Z,46.34
2018-04-24T13:30:01.842Z,49.63
2018-04-24T13:32:29.521Z,46.68
2018-04-24T13:34:57.161Z,46.34
2018-04-24T13:37:24.839Z,45.09
2018-04-24T13:39:52.472Z,44.32
2018-04-24T13:42:20.196Z,43.64
2018-04-24T13:44:48.057Z,45.34
2018-04-24T13:47:15.757Z,45.03
2018-04-24T13:49:43.396Z,46.06
2018-04-24T13:52:11.085Z,46.05
2018-04-24T13:54:38.729Z,45.98
2018-04-24T13:57:06.414Z,44.82
2018-04-24T13:59:34.089Z,46.89
2018-04-24T14:02:01.758Z,46.75
2018-04-24T14:04:29.459Z,44.42
2018-04-24T14:06:57.098Z,44.86
2018-04-24T14:09:24.762Z,44.61
2018-04-24T14:11:52.482Z,45.36
2018-04-24T14:14:20.126Z,44.69
2018-04-24T14:16:47.817Z,45.84
2018-04-24T14:19:15.459Z,47.99
2018-04-24T14:21:43.212Z,47.75
2018-04-24T14:24:10.861Z,45.74
2018-04-24T14:26:38.792Z,43.15
2018-04-24T14:29:06.716Z,47.99
2018-04-24T14:31:34.324Z,46.81
2018-04-24T14:34:02.016Z,45.89
2018-04-24T14:36:29.759Z,47.66
2018-04-24T14:38:57.660Z,48.61
2018-04-24T14:41:25.259Z,53.35
2018-04-24T14:43:52.919Z,54.41
2018-04-24T14:46:20.556Z,56.23
2018-04-24T14:48:48.194Z,55.50
2018-04-24T14:51:15.873Z,54.71
2018-04-24T14:53:43.533Z,54.03
2018-04-24T14:56:11.207Z,52.92
2018-04-24T14:58:38.870Z,52.33
2018-04-24T15:01:07.037Z,50.51
2018-04-24T15:03:34.775Z,50.84
2018-04-24T15:06:02.421Z,50.96
2018-04-24T15:08:30.129Z,50.61
2018-04-24T15:10:57.821Z,51.12
2018-04-24T15:13:26.441Z,51.47
2018-04-24T15:15:54.133Z,52.14
2018-04-24T15:18:21.893Z,47.06
2018-04-24T15:20:49.546Z,47.60
2018-04-24T15:23:17.159Z,48.25
2018-04-24T15:25:44.858Z,47.60
2018-04-24T15:28:12.485Z,49.42
2018-04-24T15:30:40.167Z,50.42
2018-04-24T15:33:07.817Z,52.42
2018-04-24T15:35:35.424Z,53.57
2018-04-24T15:38:03.050Z,52.93
2018-04-24T15:40:30.735Z,52.72
2018-04-24T15:42:58.368Z,53.94
2018-04-24T15:45:26.030Z,55.06
2018-04-24T15:47:53.633Z,52.36
2018-04-24T15:50:22.191Z,49.18
2018-04-24T15:52:49.778Z,45.76
2018-04-24T15:55:18.254Z,45.85
2018-04-24T15:57:46.025Z,48.73
2018-04-24T16:00:13.667Z,50.91
2018-04-24T16:02:41.318Z,50.88
2018-04-24T16:05:08.969Z,46.54
2018-04-24T16:07:36.753Z,48.11
2018-04-24T16:10:04.508Z,47.72
2018-04-24T16:12:32.158Z,49.65
2018-04-24T16:14:59.807Z,49.55
2018-04-24T16:17:27.490Z,52.34
2018-04-24T16:19:55.204Z,54.26
2018-04-24T16:22:22.882Z,55.79
2018-04-24T16:24:50.519Z,55.49
2018-04-24T16:27:18.198Z,53.51
2018-04-24T16:29:45.974Z,53.48
2018-04-24T16:32:13.622Z,55.58
2018-04-24T16:34:41.280Z,58.21
2018-04-24T16:37:08.956Z,58.74
2018-04-24T16:39:36.565Z,59.77
2018-04-24T16:42:04.239Z,60.50
2018-04-24T16:44:31.854Z,60.30
2018-04-24T16:46:59.514Z,61.61
2018-04-24T16:49:27.169Z,62.96
2018-04-24T16:51:54.877Z,62.94
2018-04-24T16:54:22.574Z,63.14
2018-04-24T16:56:50.214Z,63.14
2018-04-24T16:59:17.799Z,63.63
2018-04-24T17:01:46.679Z,65.34
2018-04-24T17:04:14.340Z,64.75
2018-04-24T17:06:42.010Z,65.57
2018-04-24T17:09:09.677Z,64.25
2018-04-24T17:11:37.334Z,64.80
2018-04-24T17:14:04.994Z,64.57
2018-04-24T17:16:32.702Z,64.11
2018-04-24T17:19:00.386Z,64.40
2018-04-24T17:21:28.024Z,64.59
2018-04-24T17:23:55.738Z,65.40
2018-04-24T17:26:23.390Z,64.24
2018-04-24T17:28:51.017Z,64.60
2018-04-24T17:31:18.748Z,64.18
2018-04-24T17:33:46.599Z,64.46
2018-04-24T17:36:14.231Z,65.09
2018-04-24T17:38:42.069Z,66.10
2018-04-24T17:41:10.671Z,66.79
2018-04-24T17:43:38.348Z,67.53
2018-04-24T17:46:05.955Z,66.92
2018-04-24T17:48:33.568Z,67.54
2018-04-24T17:51:02.703Z,67.37
2018-04-24T17:53:30.314Z,68.25
2018-04-24T17:55:58.057Z,68.05
2018-04-24T17:58:25.729Z,68.58
2018-04-24T18:00:53.437Z,69.64
2018-04-24T18:03:22.364Z,68.97
2018-04-24T18:05:50.190Z,67.98
2018-04-24T18:08:18.014Z,67.01
2018-04-24T18:10:47.021Z,65.70
2018-04-24T18:13:15.005Z,66.47
2018-04-24T18:15:42.774Z,67.69
2018-04-24T18:18:10.487Z,67.86
2018-04-24T18:20:38.133Z,67.63
2018-04-24T18:23:05.873Z,68.36
2018-04-24T18:25:33.595Z,68.11
2018-04-24T18:28:01.891Z,68.41
2018-04-24T18:30:29.602Z,67.63
2018-04-24T18:33:01.748Z,68.04
2018-04-24T18:35:29.773Z,67.94
2018-04-24T18:37:58.544Z,69.57
2018-04-24T18:40:26.297Z,69.11
2018-04-24T18:42:54.826Z,69.28
2018-04-24T18:45:22.983Z,70.36
2018-04-24T18:47:50.833Z,70.75
2018-04-24T18:50:18.607Z,70.42
2018-04-24T18:52:48.326Z,70.85
2018-04-24T18:55:16.171Z,72.28
2018-04-24T18:57:43.884Z,71.36
2018-04-24T19:00:11.810Z,71.59
2018-04-24T19:02:40.467Z,71.01
2018-04-24T19:05:08.180Z,70.63
2018-04-24T19:07:36.051Z,70.99
2018-04-24T19:10:03.874Z,70.05
2018-04-24T19:12:33.578Z,69.95
2018-04-24T19:15:02.572Z,70.96
2018-04-24T19:17:34.088Z,70.48
2018-04-24T19:20:03.105Z,70.99
2018-04-24T19:22:31.158Z,70.93
2018-04-24T19:25:05.338Z,71.07
2018-04-24T19:27:33.151Z,71.43
2018-04-24T19:30:00.954Z,72.33
2018-04-24T19:32:33.129Z,72.39
2018-04-24T19:35:00.856Z,72.03
2018-04-24T19:37:28.571Z,71.57
2018-04-24T19:40:01.874Z,72.57
2018-04-24T19:42:29.699Z,72.75
2018-04-24T19:44:57.451Z,74.09
2018-04-24T19:47:25.215Z,73.89
2018-04-24T19:49:58.467Z,73.77
2018-04-24T19:52:26.245Z,72.52
2018-04-24T19:54:59.536Z,73.73
2018-04-24T19:57:27.414Z,74.81
2018-04-24T19:59:55.192Z,75.44
2018-04-24T20:02:22.962Z,74.60
2018-04-24T20:04:50.709Z,74.44
2018-04-24T20:07:18.960Z,75.21
2018-04-24T20:09:47.466Z,74.19
2018-04-24T20:12:15.178Z,75.06
2018-04-24T20:14:43.094Z,74.53
2018-04-24T20:17:10.866Z,74.69
2018-04-24T20:19:38.491Z,74.52
2018-04-24T20:22:06.217Z,74.16
2018-04-24T20:24:33.899Z,75.26
2018-04-24T20:27:01.596Z,75.14
2018-04-24T20:29:29.317Z,76.68
2018-04-24T20:31:58.158Z,75.76
2018-04-24T20:34:25.977Z,76.44
2018-04-24T20:36:53.803Z,75.80
2018-04-24T20:39:21.587Z,76.16
2018-04-24T20:41:49.333Z,76.87
2018-04-24T20:44:17.094Z,77.38
2018-04-24T20:46:44.809Z,77.72
2018-04-24T20:49:12.442Z,77.58
2018-04-24T20:51:40.085Z,78.05
2018-04-24T20:54:08.049Z,77.79
2018-04-24T20:56:35.747Z,77.57
2018-04-24T20:59:03.488Z,78.28
2018-04-24T21:01:31.124Z,77.41
2018-04-24T21:03:58.847Z,77.16
2018-04-24T21:06:27.739Z,78.96
2018-04-24T21:08:55.435Z,78.43
2018-04-24T21:11:23.148Z,76.74
2018-04-24T21:13:50.784Z,76.12
2018-04-24T21:16:18.378Z,76.98
2018-04-24T21:18:46.048Z,77.58
2018-04-24T21:21:13.689Z,77.53
2018-04-24T21:23:41.351Z,77.66
2018-04-24T21:26:09.038Z,77.46
2018-04-24T21:28:36.675Z,78.19
2018-04-24T21:31:04.322Z,77.95
2018-04-24T21:33:32.436Z,77.47
2018-04-24T21:36:00.091Z,77.45
2018-04-24T21:38:27.726Z,77.64
2018-04-24T21:40:55.336Z,77.72
2018-04-24T21:43:22.985Z,78.12
2018-04-24T21:45:50.612Z,79.03
2018-04-24T21:48:18.207Z,79.47
2018-04-24T21:50:45.876Z,79.89
2018-04-24T21:53:13.535Z,79.96
2018-04-24T21:55:41.146Z,79.07
2018-04-24T21:58:08.817Z,79.06
2018-04-24T22:00:36.472Z,79.32
2018-04-24T22:03:04.073Z,79.58
2018-04-24T22:05:31.666Z,79.29
2018-04-24T22:07:59.317Z,79.09
2018-04-24T22:10:26.917Z,79.35
2018-04-24T22:12:54.576Z,79.19
2018-04-24T22:15:22.218Z,80.16
2018-04-24T22:17:49.894Z,80.31
2018-04-24T22:20:17.518Z,79.66
2018-04-24T22:22:45.146Z,80.08
2018-04-24T22:25:12.752Z,79.90
2018-04-24T22:27:41.326Z,79.88
2018-04-24T22:30:09.004Z,80.26
2018-04-24T22:32:36.625Z,80.22
2018-04-24T22:35:04.280Z,80.99
2018-04-24T22:37:31.897Z,80.70
2018-04-24T22:39:59.533Z,81.38
2018-04-24T22:42:27.161Z,81.16
2018-04-24T22:44:54.820Z,80.75
2018-04-24T22:47:22.482Z,80.66
2018-04-24T22:49:50.121Z,80.87
2018-04-24T22:52:17.735Z,80.38
2018-04-24T22:54:45.412Z,80.22
2018-04-24T22:57:12.996Z,80.26
2018-04-24T22:59:40.654Z,80.71
2018-04-24T23:02:09.157Z,80.08
2018-04-24T23:04:36.864Z,80.28
2018-04-24T23:07:04.483Z,80.20
2018-04-24T23:09:32.167Z,80.26
2018-04-24T23:12:11.574Z,80.72
2018-04-24T23:14:50.842Z,80.69
2018-04-24T23:17:30.044Z,80.59
2018-04-24T23:20:09.338Z,81.56
2018-04-24T23:22:37.049Z,81.12
2018-04-24T23:25:04.648Z,80.18
2018-04-24T23:27:32.382Z,80.38
2018-04-24T23:30:00.000Z,80.95
2018-04-24T23:32:27.649Z,81.09
2018-04-24T23:34:55.319Z,81.96
2018-04-24T23:37:22.946Z,81.74
2018-04-24T23:39:50.676Z,82.24
2018-04-24T23:42:18.398Z,82.28
2018-04-24T23:44:46.024Z,81.78
2018-04-24T23:47:13.693Z,81.75
2018-04-24T23:49:41.322Z,81.90
2018-04-24T23:52:08.976Z,82.48
2018-04-24T23:54:36.547Z,82.19
2018-04-24T23:57:04.206Z,82.09
2018-04-24T23:59:31.868Z,82.10
